»·PEaware :: RSP405 KLAX-KLAS

RSP405 :: KLAX-KLAS

FLIGHT INFORMATION

Flight Status: Arrived
Operator: Unknown
More flights by this operator :: More flights under this callsign
Pilot: Matt C. (2277)
Aircraft: CESSNA 525B CITATION CJ3
(C25B)
More flights by this aircraft type
Origin: KLAX Los Angeles Intl
United States
Destination: KLAS McCarran Intl
United States
More flights between these airports :: More routes between these airports
Route: LOOP7 DAG KEPEC3
File this flight plan on PilotEdge
Remarks:
Altitude:
(Current/Filed)
17,000ft
Speed:
(Current/Filed)
400kts
Departed: 04-Mar-15 10:41 AM
Arrived: 04-Mar-15 11:48 AM
Distance/Time
Traveled:
204nm/1:07
Distance/Time
To Go:
Arrived

Flight Plot

Page will automatically refresh every two minutes.


Map Options




Map Legend


Flown Route
Filed Route
Departure Airport
Arrival Airport
Navaid (VOR, NDB)
Fix

Horizontal Profiles

Position Reports

Time Latitude Longitude Heading Altitude Ground
Speed
04-Mar-15 10:19 33.933524 -118.397521 82 129ft 0kts
04-Mar-15 10:20 33.933524 -118.397518 82 129ft 0kts
04-Mar-15 10:21 33.933524 -118.397516 82 129ft 0kts
04-Mar-15 10:22 33.933525 -118.397513 82 129ft 0kts
04-Mar-15 10:23 33.933525 -118.397510 82 129ft 0kts
04-Mar-15 10:24 33.933525 -118.397507 82 129ft 0kts
04-Mar-15 10:25 33.933526 -118.397504 82 129ft 0kts
04-Mar-15 10:26 33.933526 -118.397501 82 129ft 0kts
04-Mar-15 10:27 33.933526 -118.397499 82 129ft 0kts
04-Mar-15 10:28 33.933527 -118.397496 82 129ft 0kts
04-Mar-15 10:29 33.933527 -118.397493 82 129ft 0kts
04-Mar-15 10:30 33.933957 -118.397746 325 129ft 11kts
04-Mar-15 10:31 33.935209 -118.392559 82 129ft 13kts
04-Mar-15 10:32 33.935832 -118.386269 79 129ft 21kts
04-Mar-15 10:33 33.936660 -118.382928 347 129ft 0kts
04-Mar-15 10:34 33.936664 -118.382929 347 129ft 0kts
04-Mar-15 10:35 33.936411 -118.393956 263 162ft 120kts
04-Mar-15 10:36 33.930131 -118.452248 261 1851ft 231kts
04-Mar-15 10:37 33.903699 -118.521186 242 5603ft 232kts
04-Mar-15 10:38 33.874261 -118.587939 226 9231ft 212kts
04-Mar-15 10:39 33.837979 -118.568715 63 11844ft 194kts
04-Mar-15 10:40 33.875480 -118.514187 47 14080ft 215kts
04-Mar-15 10:41 33.911183 -118.453161 54 16386ft 229kts
04-Mar-15 10:42 33.950371 -118.394681 45 18697ft 228kts
04-Mar-15 10:43 33.989956 -118.332298 50 20704ft 238kts
04-Mar-15 10:44 34.027500 -118.266205 52 22702ft 237kts
04-Mar-15 10:45 34.068633 -118.193750 52 23192ft 292kts
04-Mar-15 10:46 34.118725 -118.105190 53 23172ft 339kts
04-Mar-15 10:47 34.173973 -118.007283 53 23175ft 359kts
04-Mar-15 10:48 34.229382 -117.908591 53 23183ft 349kts
04-Mar-15 10:49 34.283864 -117.811393 53 23188ft 350kts
04-Mar-15 10:50 34.338668 -117.713390 53 23186ft 351kts
04-Mar-15 10:51 34.393384 -117.615270 53 23194ft 351kts
04-Mar-15 10:52 34.448039 -117.516988 53 23205ft 351kts
04-Mar-15 10:53 34.502416 -117.418940 53 23221ft 351kts
04-Mar-15 10:54 34.556905 -117.320420 53 23227ft 351kts
04-Mar-15 10:55 34.611315 -117.221768 53 23227ft 351kts
04-Mar-15 10:56 34.665696 -117.122892 53 23228ft 351kts
04-Mar-15 10:57 34.719771 -117.024298 53 23233ft 351kts
04-Mar-15 10:58 34.774006 -116.925132 53 23241ft 351kts
04-Mar-15 10:59 34.828097 -116.825947 53 23248ft 351kts
04-Mar-15 11:00 34.882134 -116.726569 53 23248ft 351kts
04-Mar-15 11:01 34.935941 -116.627302 53 23243ft 351kts
04-Mar-15 11:02 34.997619 -116.535364 45 23234ft 349kts
04-Mar-15 11:03 35.065210 -116.450031 43 23223ft 349kts
04-Mar-15 11:04 35.121834 -116.379586 43 23218ft 349kts
04-Mar-15 11:05 35.189787 -116.294631 43 23217ft 349kts
04-Mar-15 11:06 35.267913 -116.196586 43 21661ft 344kts
04-Mar-15 11:07 35.323197 -116.127011 44 20241ft 336kts
04-Mar-15 11:08 35.387864 -116.045432 44 18561ft 331kts
04-Mar-15 11:09 35.449771 -115.967085 43 16956ft 308kts
04-Mar-15 11:10 35.508760 -115.892308 43 15532ft 303kts
04-Mar-15 11:11 35.567072 -115.818184 43 14217ft 302kts
04-Mar-15 11:12 35.625300 -115.744086 43 13225ft 293kts
04-Mar-15 11:13 35.678308 -115.676650 43 13149ft 265kts
04-Mar-15 11:14 35.729572 -115.611158 43 13158ft 269kts
04-Mar-15 11:15 35.796529 -115.575507 8 13178ft 270kts
04-Mar-15 11:16 35.872120 -115.569164 4 13168ft 272kts
04-Mar-15 11:17 35.947774 -115.564055 14 13162ft 271kts
04-Mar-15 11:18 35.994307 -115.493332 62 13113ft 280kts
04-Mar-15 11:19 36.020834 -115.408237 65 12259ft 260kts
04-Mar-15 11:20 36.026555 -115.321008 87 10947ft 243kts
04-Mar-15 11:21 36.021017 -115.235591 92 9477ft 240kts
04-Mar-15 11:22 36.015469 -115.157023 92 8308ft 227kts
04-Mar-15 11:23 36.010534 -115.083528 92 8167ft 216kts
04-Mar-15 11:24 36.005905 -115.006545 92 8167ft 229kts
04-Mar-15 11:25 36.001157 -114.927237 92 8171ft 233kts
04-Mar-15 11:26 35.996229 -114.846507 92 8175ft 231kts
04-Mar-15 11:27 35.991896 -114.779693 92 8180ft 187kts
04-Mar-15 11:28 35.987695 -114.715891 92 8178ft 187kts
04-Mar-15 11:29 35.983445 -114.651290 92 8179ft 195kts
04-Mar-15 11:30 36.003429 -114.602366 4 8189ft 183kts
04-Mar-15 11:31 36.050482 -114.614068 297 8183ft 191kts
04-Mar-15 11:32 36.060393 -114.665403 283 8177ft 195kts
04-Mar-15 11:33 36.070349 -114.729378 283 8175ft 200kts
04-Mar-15 11:34 36.075844 -114.764663 283 8166ft 197kts
04-Mar-15 11:35 36.082639 -114.812251 279 8168ft 193kts
04-Mar-15 11:36 36.074432 -114.875466 260 7814ft 208kts
04-Mar-15 11:37 36.072731 -114.937885 275 6765ft 160kts
04-Mar-15 11:38 36.074237 -114.994635 271 4833ft 162kts
04-Mar-15 11:39 36.073672 -115.048692 272 3379ft 146kts
04-Mar-15 11:40 36.073723 -115.096886 273 2673ft 129kts
04-Mar-15 11:41 36.073599 -115.139029 276 2184ft 101kts
04-Mar-15 11:42 36.074821 -115.161445 339 2184ft 6kts
04-Mar-15 11:43 36.074827 -115.164979 265 2184ft 25kts
04-Mar-15 11:44 36.075216 -115.169407 294 2184ft 2kts
04-Mar-15 11:45 36.075626 -115.170221 315 2184ft 19kts
04-Mar-15 11:46 36.080857 -115.171389 268 2184ft 0kts

Navigation Log

Ident Type
Flight plan parsing failed, navigation log unavailable